createdAt,value
2016-04-12T00:02:28.928Z,1008.46
2016-04-12T00:05:45.453Z,1008.56
2016-04-12T00:08:53.192Z,1008.54
2016-04-12T00:11:56.981Z,1008.54
2016-04-12T00:15:07.849Z,1008.54
2016-04-12T00:18:20.732Z,1008.56
2016-04-12T00:21:30.132Z,1008.56
2016-04-12T00:24:46.719Z,1008.54
2016-04-12T00:27:54.523Z,1008.56
2016-04-12T00:30:58.186Z,1008.52
2016-04-12T00:34:10.848Z,1008.5
2016-04-12T00:37:21.950Z,1008.36
2016-04-12T00:40:34.757Z,1008.43
2016-04-12T00:43:51.234Z,1008.43
2016-04-12T00:46:55.070Z,1008.18
2016-04-12T00:50:07.861Z,1008.28
2016-04-12T00:53:20.399Z,1008.34
2016-04-12T00:56:31.392Z,1008.18
2016-04-12T00:59:47.965Z,1008.28
2016-04-12T01:02:51.910Z,1008.22
2016-04-12T01:06:04.606Z,1008.22
2016-04-12T01:09:17.317Z,1008.2
2016-04-12T01:12:27.888Z,1008.06
2016-04-12T01:15:40.898Z,1008.06
2016-04-12T01:18:54.547Z,1008.06
2016-04-12T01:21:58.430Z,1007.97
2016-04-12T01:25:11.391Z,1008.02
2016-04-12T01:28:24.102Z,1007.97
2016-04-12T01:31:35.363Z,1007.98
2016-04-12T01:34:48.481Z,1008
2016-04-12T01:37:52.317Z,1007.97
2016-04-12T01:41:05.090Z,1007.97
2016-04-12T01:44:17.818Z,1007.91
2016-04-12T01:47:29.950Z,1007.95
2016-04-12T01:50:46.617Z,1007.97
2016-04-12T01:53:54.438Z,1007.85
2016-04-12T01:56:58.337Z,1007.81
2016-04-12T02:00:07.877Z,1007.91
2016-04-12T02:03:18.119Z,1007.89
2016-04-12T02:06:30.595Z,1007.85
2016-04-12T02:09:46.918Z,1007.81
2016-04-12T02:12:54.770Z,1007.93
2016-04-12T02:15:58.497Z,1007.83
2016-04-12T02:19:11.178Z,1007.83
2016-04-12T02:22:21.717Z,1007.59
2016-04-12T02:25:32.741Z,1007.69
2016-04-12T02:28:49.594Z,1007.69
2016-04-12T02:31:53.274Z,1007.59
2016-04-12T02:35:05.283Z,1007.45
2016-04-12T02:38:17.994Z,1007.51
2016-04-12T02:41:28.205Z,1007.59
2016-04-12T02:44:40.841Z,1007.45
2016-04-12T02:47:51.770Z,1007.45
2016-04-12T02:51:04.247Z,1007.37
2016-04-12T02:54:16.693Z,1007.23
2016-04-12T02:57:29.310Z,1007.23
2016-04-12T03:00:45.743Z,1007.27
2016-04-12T03:03:53.563Z,1007.23
2016-04-12T03:06:57.399Z,1007.27
2016-04-12T03:10:10.001Z,1007.23
2016-04-12T03:13:20.073Z,1007.19
2016-04-12T03:16:33.752Z,1007.17
2016-04-12T03:19:50.420Z,1007.13
2016-04-12T03:22:54.272Z,1007.13
2016-04-12T03:26:05.373Z,1007.21
2016-04-12T03:29:16.037Z,1007.27
2016-04-12T03:32:24.826Z,1007.15
2016-04-12T03:35:34.837Z,1007.17
2016-04-12T03:38:50.893Z,1007.13
2016-04-12T03:41:54.604Z,1007.11
2016-04-12T03:45:07.284Z,1007.13
2016-04-12T03:48:19.838Z,1007.17
2016-04-12T03:51:30.392Z,1007.21
2016-04-12T03:54:46.717Z,1007.19
2016-04-12T03:57:54.505Z,1007.05
2016-04-12T04:00:58.358Z,1007.05
2016-04-12T04:04:11.038Z,1007.07
2016-04-12T04:07:20.529Z,1007.05
2016-04-12T04:10:31.241Z,1007.01
2016-04-12T04:13:47.987Z,1006.99
2016-04-12T04:16:51.837Z,1007.03
2016-04-12T04:20:01.284Z,1007.01
2016-04-12T04:23:13.839Z,1007.01
2016-04-12T04:26:26.487Z,1006.85
2016-04-12T04:29:39.248Z,1006.91
2016-04-12T04:32:51.991Z,1006.93
2016-04-12T04:36:04.638Z,1006.81
2016-04-12T04:39:17.304Z,1006.85
2016-04-12T04:42:28.577Z,1006.85
2016-04-12T04:45:41.120Z,1006.81
2016-04-12T04:48:54.674Z,1006.75
2016-04-12T04:51:58.464Z,1006.79
2016-04-12T04:55:07.300Z,1006.77
2016-04-12T04:58:19.916Z,1006.71
2016-04-12T05:01:32.722Z,1006.67
2016-04-12T05:04:46.030Z,1006.61
2016-04-12T05:07:53.850Z,1006.59
2016-04-12T05:10:57.665Z,1006.46
2016-04-12T05:14:10.532Z,1006.52
2016-04-12T05:17:23.134Z,1006.54
2016-04-12T05:20:32.283Z,1006.48
2016-04-12T05:23:50.325Z,1006.34
2016-04-12T05:26:54.271Z,1006.4
2016-04-12T05:30:06.919Z,1006.44
2016-04-12T05:33:19.630Z,1006.42
2016-04-12T05:36:30.670Z,1006.36
2016-04-12T05:39:47.212Z,1006.32
2016-04-12T05:42:55.048Z,1006.4
2016-04-12T05:45:58.900Z,1006.28
2016-04-12T05:49:11.705Z,1006.4
2016-04-12T05:52:24.369Z,1006.4
2016-04-12T05:55:36.846Z,1006.32
2016-04-12T05:58:53.575Z,1006.34
2016-04-12T06:01:57.490Z,1006.36
2016-04-12T06:05:06.966Z,1006.28
2016-04-12T06:08:17.412Z,1006.16
2016-04-12T06:11:28.248Z,1006.12
2016-04-12T06:14:38.412Z,1006.18
2016-04-12T06:17:55.376Z,1006.16
2016-04-12T06:20:59.275Z,1006.24
2016-04-12T06:24:10.627Z,1006.26
2016-04-12T06:27:20.338Z,1006.26
2016-04-12T06:30:33.158Z,1006.36
2016-04-12T06:33:46.716Z,1006.34
2016-04-12T06:36:54.755Z,1006.3
2016-04-12T06:39:58.561Z,1006.28
2016-04-12T06:43:11.365Z,1006.2
2016-04-12T06:46:24.076Z,1006.28
2016-04-12T06:49:36.881Z,1006.44
2016-04-12T06:52:51.252Z,1006.4
2016-04-12T06:55:55.229Z,1006.48
2016-04-12T06:59:04.486Z,1006.42
2016-04-12T07:02:14.760Z,1006.46
2016-04-12T07:05:26.268Z,1006.48
2016-04-12T07:08:37.401Z,1006.44
2016-04-12T07:11:51.599Z,1006.54
2016-04-12T07:14:55.561Z,1006.54
2016-04-12T07:18:08.397Z,1006.59
2016-04-12T07:21:17.718Z,1006.65
2016-04-12T07:24:30.475Z,1006.61
2016-04-12T07:27:47.221Z,1006.69
2016-04-12T07:30:55.088Z,1006.63
2016-04-12T07:33:58.941Z,1006.63
2016-04-12T07:37:11.636Z,1006.63
2016-04-12T07:40:23.769Z,1006.65
2016-04-12T07:43:36.750Z,1006.67
2016-04-12T07:46:53.420Z,1006.61
2016-04-12T07:49:57.417Z,1006.61
2016-04-12T07:53:07.184Z,1006.55
2016-04-12T07:56:19.335Z,1006.57
2016-04-12T07:59:29.745Z,1006.55
2016-04-12T08:02:39.602Z,1006.57
2016-04-12T08:05:52.523Z,1006.57
2016-04-12T08:09:02.928Z,1006.59
2016-04-12T08:12:12.797Z,1006.71
2016-04-12T08:15:25.856Z,1006.59
2016-04-12T08:18:38.724Z,1006.65
2016-04-12T08:21:55.672Z,1006.65
2016-04-12T08:24:59.774Z,1006.67
2016-04-12T08:28:12.688Z,1006.65
2016-04-12T08:31:25.571Z,1006.63
2016-04-12T08:34:38.392Z,1006.65
2016-04-12T08:37:55.137Z,1006.65
2016-04-12T08:40:59.129Z,1006.57
2016-04-12T08:44:10.450Z,1006.73
2016-04-12T08:47:23.224Z,1006.71
2016-04-12T08:50:36.060Z,1006.75
2016-04-12T08:53:52.821Z,1006.69
2016-04-12T08:56:56.954Z,1006.67
2016-04-12T09:00:09.930Z,1006.69
2016-04-12T09:03:22.720Z,1006.69
2016-04-12T09:06:34.071Z,1006.75
2016-04-12T09:09:50.775Z,1006.61
2016-04-12T09:12:54.908Z,1006.75
2016-04-12T09:16:05.494Z,1006.65
2016-04-12T09:19:15.299Z,1006.69
2016-04-12T09:22:28.010Z,1006.69
2016-04-12T09:25:40.096Z,1006.59
2016-04-12T09:28:52.779Z,1006.52
2016-04-12T09:32:03.178Z,1006.65
2016-04-12T09:35:15.905Z,1006.57
2016-04-12T09:38:28.647Z,1006.63
2016-04-12T09:41:38.421Z,1006.69
2016-04-12T09:44:52.916Z,1006.54
2016-04-12T09:47:56.861Z,1006.63
2016-04-12T09:51:06.588Z,1006.52
2016-04-12T09:54:19.613Z,1006.44
2016-04-12T09:57:30.729Z,1006.46
2016-04-12T10:00:47.444Z,1006.46
2016-04-12T10:03:55.467Z,1006.46
2016-04-12T10:06:59.663Z,1006.55
2016-04-12T10:10:11.936Z,1006.42
2016-04-12T10:13:24.944Z,1006.44
2016-04-12T10:16:37.781Z,1006.48
2016-04-12T10:19:54.541Z,1006.54
2016-04-12T10:22:58.769Z,1006.42
2016-04-12T10:26:11.541Z,1006.44
2016-04-12T10:29:24.471Z,1006.32
2016-04-12T10:32:35.245Z,1006.34
2016-04-12T10:35:50.819Z,1006.28
2016-04-12T10:38:53.701Z,1006.2
2016-04-12T10:42:06.787Z,1006.24
2016-04-12T10:45:21.109Z,1006.12
2016-04-12T10:48:32.883Z,1006.16
2016-04-12T10:51:49.519Z,1006.06
2016-04-12T10:54:53.730Z,1005.98
2016-04-12T10:58:06.752Z,1006.12
2016-04-12T11:01:19.682Z,1006
2016-04-12T11:04:31.909Z,1005.92
2016-04-12T11:10:52.990Z,1005.92
2016-04-12T11:14:06.046Z,1005.92
2016-04-12T11:17:19.069Z,1005.82
2016-04-12T11:20:32.280Z,1005.82
2016-04-12T11:23:49.401Z,1005.68
2016-04-12T11:26:53.799Z,1005.64
2016-04-12T11:30:06.496Z,1005.7
2016-04-12T11:33:19.566Z,1005.58
2016-04-12T11:36:32.652Z,1005.64
2016-04-12T11:39:49.334Z,1005.64
2016-04-12T11:42:53.780Z,1005.54
2016-04-12T11:46:06.788Z,1005.5
2016-04-12T11:49:17.343Z,1005.54
2016-04-12T11:52:30.585Z,1005.54
2016-04-12T11:55:47.078Z,1005.52
2016-04-12T11:58:55.339Z,1005.54
2016-04-12T12:01:59.597Z,1005.64
2016-04-12T12:05:12.761Z,1005.68
2016-04-12T12:08:25.785Z,1005.78
2016-04-12T12:11:38.839Z,1005.64
2016-04-12T12:14:52.006Z,1005.64
2016-04-12T12:18:02.812Z,1005.56
2016-04-12T12:21:15.883Z,1005.6
2016-04-12T12:24:27.875Z,1005.64
2016-04-12T12:27:46.133Z,1005.66
2016-04-12T12:30:54.253Z,1005.56
2016-04-12T12:33:58.605Z,1005.6
2016-04-12T12:37:09.332Z,1005.7
2016-04-12T12:40:22.637Z,1005.6
2016-04-12T12:43:35.520Z,1005.54
2016-04-12T12:46:51.075Z,1005.52
2016-04-12T12:49:55.506Z,1005.5
2016-04-12T12:53:08.655Z,1005.56
2016-04-12T12:56:21.758Z,1005.62
2016-04-12T12:59:31.531Z,1005.56
2016-04-12T13:02:48.524Z,1005.52
2016-04-12T13:05:52.844Z,1005.58
2016-04-12T13:09:05.888Z,1005.46
2016-04-12T13:12:16.554Z,1005.46
2016-04-12T13:15:29.515Z,1005.46
2016-04-12T13:18:46.788Z,1005.5
2016-04-12T13:21:58.049Z,1005.46
2016-04-12T13:24:59.495Z,1005.42
2016-04-12T13:28:09.815Z,1005.42
2016-04-12T13:31:20.855Z,1005.36
2016-04-12T13:34:33.910Z,1005.38
2016-04-12T13:37:50.918Z,1005.44
2016-04-12T13:40:55.191Z,1005.42
2016-04-12T13:44:05.737Z,1005.4
2016-04-12T13:47:16.344Z,1005.38
2016-04-12T13:50:26.368Z,1005.4
2016-04-12T13:53:38.876Z,1005.42
2016-04-12T13:56:52.884Z,1005.38
2016-04-12T13:59:57.235Z,1005.3
2016-04-12T14:03:10.356Z,1005.28
2016-04-12T14:06:23.677Z,1005.32
2016-04-12T14:09:36.841Z,1005.26
2016-04-12T14:12:53.678Z,1005.22
2016-04-12T14:15:58.153Z,1005.2
2016-04-12T14:19:11.133Z,1005.1
2016-04-12T14:22:24.391Z,1005.12
2016-04-12T14:25:37.024Z,1005.1
2016-04-12T14:28:51.642Z,1005.02
2016-04-12T14:31:56.010Z,1004.96
2016-04-12T14:35:06.364Z,1004.96
2016-04-12T14:38:19.294Z,1004.92
2016-04-12T14:41:30.912Z,1004.96
2016-04-12T14:44:48.060Z,1004.82
2016-04-12T14:47:52.458Z,1004.86
2016-04-12T14:51:05.047Z,1004.8
2016-04-12T14:54:18.290Z,1004.9
2016-04-12T14:57:31.532Z,1004.84
2016-04-12T15:00:48.635Z,1004.86
2016-04-12T15:03:52.971Z,1004.8
2016-04-12T15:07:04.559Z,1004.84
2016-04-12T15:10:15.301Z,1004.82
2016-04-12T15:13:28.404Z,1004.78
2016-04-12T15:16:38.489Z,1004.8
2016-04-12T15:19:53.857Z,1004.69
2016-04-12T15:22:58.146Z,1004.84
2016-04-12T15:26:11.188Z,1004.78
2016-04-12T15:29:23.993Z,1004.8
2016-04-12T15:32:37.158Z,1004.8
2016-04-12T15:35:54.135Z,1004.75
2016-04-12T15:38:58.612Z,1004.73
2016-04-12T15:42:09.325Z,1004.76
2016-04-12T15:45:22.381Z,1004.73
2016-04-12T15:48:35.278Z,1004.76
2016-04-12T15:51:52.396Z,1004.73
2016-04-12T15:54:56.764Z,1004.78
2016-04-12T15:58:06.056Z,1004.67
2016-04-12T16:01:18.954Z,1004.71
2016-04-12T16:04:30.119Z,1004.76
2016-04-12T16:07:41.690Z,1004.65
2016-04-12T16:10:54.713Z,1004.75
2016-04-12T16:14:06.161Z,1004.69
2016-04-12T16:17:19.295Z,1004.75
2016-04-12T16:20:29.786Z,1004.76
2016-04-12T16:23:46.576Z,1004.65
2016-04-12T16:26:54.913Z,1004.63
2016-04-12T16:29:58.999Z,1004.69
2016-04-12T16:33:10.103Z,1004.71
2016-04-12T16:36:24.440Z,1004.71
2016-04-12T16:39:37.370Z,1004.67
2016-04-12T16:42:54.439Z,1004.53
2016-04-12T16:45:58.947Z,1004.65
2016-04-12T16:49:10.701Z,1004.49
2016-04-12T16:52:23.956Z,1004.49
2016-04-12T16:55:34.831Z,1004.47
2016-04-12T16:58:49.633Z,1004.35
2016-04-12T17:01:54.049Z,1004.35
2016-04-12T17:05:06.996Z,1004.39
2016-04-12T17:08:19.479Z,1004.31
2016-04-12T17:11:32.035Z,1004.17
2016-04-12T17:14:49.014Z,1004.23
2016-04-12T17:17:53.271Z,1004.25
2016-04-12T17:21:06.251Z,1004.23
2016-04-12T17:24:18.682Z,1004.29
2016-04-12T17:27:31.752Z,1004.13
2016-04-12T17:30:46.634Z,1004.35
2016-04-12T17:33:54.752Z,1004.25
2016-04-12T17:36:58.917Z,1004.19
2016-04-12T17:40:09.895Z,1004.21
2016-04-12T17:43:21.122Z,1004.25
2016-04-12T17:46:34.068Z,1004.21
2016-04-12T17:49:50.936Z,1004.21
2016-04-12T17:52:54.866Z,1004.27
2016-04-12T17:56:07.688Z,1004.21
2016-04-12T17:59:20.275Z,1004.19
2016-04-12T18:02:33.204Z,1004.21
2016-04-12T18:05:48.292Z,1004.21
2016-04-12T18:08:56.314Z,1004.19
2016-04-12T18:12:00.416Z,1004.23
2016-04-12T18:15:10.928Z,1004.31
2016-04-12T18:18:20.872Z,1004.23
2016-04-12T18:21:30.521Z,1004.39
2016-04-12T18:24:41.061Z,1004.29
2016-04-12T18:27:53.976Z,1004.31
2016-04-12T18:31:03.423Z,1004.35
2016-04-12T18:34:16.385Z,1004.25
2016-04-12T18:37:26.362Z,1004.33
2016-04-12T18:40:39.151Z,1004.29
2016-04-12T18:43:54.346Z,1004.41
2016-04-12T18:46:58.322Z,1004.25
2016-04-12T18:50:09.505Z,1004.43
2016-04-12T18:53:22.357Z,1004.37
2016-04-12T18:56:35.225Z,1004.33
2016-04-12T18:59:51.983Z,1004.37
2016-04-12T19:02:55.991Z,1004.33
2016-04-12T19:06:07.815Z,1004.43
2016-04-12T19:09:21.198Z,1004.37
2016-04-12T19:12:33.847Z,1004.37
2016-04-12T19:15:50.511Z,1004.35
2016-04-12T19:18:54.331Z,1004.43
2016-04-12T19:22:04.092Z,1004.45
2016-04-12T19:25:16.803Z,1004.49
2016-04-12T19:28:29.640Z,1004.41
2016-04-12T19:31:42.429Z,1004.43
2016-04-12T19:34:55.093Z,1004.49
2016-04-12T19:38:07.900Z,1004.41
2016-04-12T19:41:20.752Z,1004.49
2016-04-12T19:44:33.542Z,1004.43
2016-04-12T19:47:48.737Z,1004.39
2016-04-12T19:50:52.449Z,1004.43
2016-04-12T19:54:05.097Z,1004.43
2016-04-12T19:57:17.889Z,1004.41
2016-04-12T20:00:30.632Z,1004.47
2016-04-12T20:03:47.202Z,1004.45
2016-04-12T20:06:54.992Z,1004.47
2016-04-12T20:09:58.831Z,1004.41
2016-04-12T20:13:11.264Z,1004.39
2016-04-12T20:16:24.007Z,1004.31
2016-04-12T20:19:36.749Z,1004.33
2016-04-12T20:22:51.976Z,1004.31
2016-04-12T20:25:55.796Z,1004.39
2016-04-12T20:29:07.023Z,1004.29
2016-04-12T20:32:19.222Z,1004.31
2016-04-12T20:35:31.886Z,1004.23
2016-04-12T20:38:41.472Z,1004.29
2016-04-12T20:41:53.730Z,1004.27
2016-04-12T20:45:04.770Z,1004.27
2016-04-12T20:48:18.421Z,1004.35
2016-04-12T20:51:28.679Z,1004.21
2016-04-12T20:54:41.312Z,1004.23
2016-04-12T20:57:54.179Z,1004.17
2016-04-12T21:01:06.890Z,1004.23
2016-04-12T21:04:19.230Z,1004.25
2016-04-12T21:07:31.956Z,1004.19
2016-04-12T21:10:48.621Z,1004.29
2016-04-12T21:13:56.238Z,1004.39
2016-04-12T21:16:59.888Z,1004.33
2016-04-12T21:20:12.819Z,1004.45
2016-04-12T21:23:25.218Z,1004.45
2016-04-12T21:26:35.585Z,1004.35
2016-04-12T21:29:51.953Z,1004.39
2016-04-12T21:32:55.664Z,1004.35
2016-04-12T21:36:08.000Z,1004.39
2016-04-12T21:39:17.559Z,1004.35
2016-04-12T21:42:30.175Z,1004.33
2016-04-12T21:45:42.575Z,1004.29
2016-04-12T21:48:53.067Z,1004.39
2016-04-12T21:52:05.763Z,1004.27
2016-04-12T21:55:18.304Z,1004.19
2016-04-12T21:58:27.969Z,1004.17
2016-04-12T22:01:37.462Z,1004.17
2016-04-12T22:04:51.204Z,1004.13
2016-04-12T22:07:54.931Z,1004.07
2016-04-12T22:11:03.908Z,1004.07
2016-04-12T22:14:13.590Z,1004.03
2016-04-12T22:17:25.972Z,1004.07
2016-04-12T22:20:38.388Z,1004.01
2016-04-12T22:23:54.676Z,1004.07
2016-04-12T22:26:58.294Z,1004.15
2016-04-12T22:30:10.912Z,1004.33
2016-04-12T22:33:23.578Z,1004.37
2016-04-12T22:36:35.664Z,1004.43
2016-04-12T22:39:50.626Z,1004.31
2016-04-12T22:42:54.289Z,1004.35
2016-04-12T22:46:05.797Z,1004.37
2016-04-12T22:49:15.903Z,1004.37
2016-04-12T22:52:28.396Z,1004.29
2016-04-12T22:55:44.794Z,1004.37
2016-04-12T22:58:53.607Z,1004.29
2016-04-12T23:02:06.334Z,1004.27
2016-04-12T23:05:17.218Z,1004.23
2016-04-12T23:08:27.326Z,1004.23
2016-04-12T23:11:38.459Z,1004.27
2016-04-12T23:14:51.780Z,1004.15
2016-04-12T23:17:55.288Z,1004.13
2016-04-12T23:21:05.124Z,1004.15
2016-04-12T23:24:15.929Z,1004.11
2016-04-12T23:27:28.596Z,1004.13
2016-04-12T23:30:41.026Z,1004.07
2016-04-12T23:33:53.628Z,1004.15
2016-04-12T23:37:06.120Z,1004.07
2016-04-12T23:40:17.775Z,1003.97
2016-04-12T23:43:29.989Z,1003.95
2016-04-12T23:46:38.622Z,1003.77
2016-04-12T23:49:54.911Z,1003.83
2016-04-12T23:52:58.466Z,1003.81
2016-04-12T23:56:10.864Z,1003.63
2016-04-12T23:59:23.282Z,1003.57
